Time;durP1;ratioP1;P1;durP2;ratioP2;P2;SDS_P1;SDS_P2;PMS_P1;PMS_P2;Temp;Humidity;BMP_temperature;BMP_pressure;BME280_temperature;BME280_humidity;BME280_pressure;Samples;Min_cycle;Max_cycle;Signal;HPM_P1;HPM_P2
2022/08/04 00:00:12;;;;;;;3.53;3.43;;;22.40;99.90;;;;;;4967775;28;20208;-53
2022/08/04 00:02:52;;;;;;;3.27;3.17;;;22.40;99.90;;;;;;4976767;28;20236;-52
2022/08/04 00:05:31;;;;;;;3.27;3.17;;;22.30;99.90;;;;;;4969579;28;20208;-52
2022/08/04 00:08:07;;;;;;;4.00;3.70;;;22.30;99.90;;;;;;4976040;28;20681;-52
2022/08/04 00:10:34;;;;;;;3.37;3.27;;;22.20;99.90;;;;;;4979352;28;20757;-52
2022/08/04 00:13:04;;;;;;;3.43;3.33;;;22.10;99.90;;;;;;4968644;28;20575;-52
2022/08/04 00:15:33;;;;;;;2.87;2.70;;;22.10;99.90;;;;;;4973151;28;20231;-52
2022/08/04 00:18:03;;;;;;;3.23;3.00;;;22.10;99.90;;;;;;4970542;28;20200;-52
2022/08/04 00:20:33;;;;;;;3.30;3.07;;;22.10;99.90;;;;;;4973156;28;20208;-52
2022/08/04 00:23:01;;;;;;;4.33;3.27;;;22.10;99.90;;;;;;4978931;28;20227;-52
2022/08/04 00:25:29;;;;;;;3.40;3.30;;;22.10;99.90;;;;;;4975669;28;20287;-52
2022/08/04 00:27:57;;;;;;;4.20;3.73;;;22.10;99.90;;;;;;4978095;28;20287;-53
2022/08/04 00:30:24;;;;;;;3.30;3.20;;;22.10;99.90;;;;;;4981022;28;20248;-52
2022/08/04 00:32:52;;;;;;;3.40;3.30;;;22.10;99.90;;;;;;4976017;28;20262;-52
2022/08/04 00:35:19;;;;;;;3.77;3.57;;;22.10;99.90;;;;;;4974369;28;20271;-52
2022/08/04 00:37:48;;;;;;;4.07;3.87;;;22.10;99.90;;;;;;4973161;28;20279;-53
2022/08/04 00:40:24;;;;;;;4.13;3.93;;;22.10;99.90;;;;;;4981847;28;20208;-53
2022/08/04 00:42:59;;;;;;;4.00;3.80;;;22.10;99.90;;;;;;4971189;28;20447;-52
2022/08/04 00:45:45;;;;;;;3.30;3.20;;;22.10;99.90;;;;;;4970142;28;20302;-53
2022/08/04 00:48:21;;;;;;;3.37;3.20;;;22.10;99.90;;;;;;4982248;28;20778;-52
2022/08/04 00:50:59;;;;;;;3.10;3.00;;;22.10;99.90;;;;;;4975543;28;20282;-53
2022/08/04 00:53:36;;;;;;;4.30;3.20;;;22.10;99.90;;;;;;4970382;28;20204;-53
2022/08/04 00:56:23;;;;;;;3.57;3.27;;;22.00;99.90;;;;;;4972217;28;20314;-53
2022/08/04 00:59:03;;;;;;;4.07;3.87;;;22.00;99.90;;;;;;4968250;28;20202;-53
2022/08/04 01:02:01;;;;;;;3.97;3.27;;;21.90;99.90;;;;;;4980105;28;20251;-52
2022/08/04 01:04:45;;;;;;;3.73;3.57;;;21.90;99.90;;;;;;4980414;28;20224;-52
2022/08/04 01:07:37;;;;;;;3.47;3.27;;;21.90;99.90;;;;;;4984233;28;20208;-52
2022/08/04 01:10:12;;;;;;;3.20;3.00;;;21.90;99.90;;;;;;4968215;28;20292;-52
2022/08/04 01:12:59;;;;;;;3.97;3.77;;;21.90;99.90;;;;;;4970002;28;20617;-52
2022/08/04 01:15:35;;;;;;;3.90;3.67;;;21.90;99.90;;;;;;4970796;28;20261;-53
2022/08/04 01:18:06;;;;;;;3.90;3.30;;;21.80;99.90;;;;;;4974560;28;20302;-52
2022/08/04 01:20:38;;;;;;;3.90;3.80;;;21.80;99.90;;;;;;4989669;28;20203;-52
2022/08/04 01:23:47;;;;;;;3.80;3.60;;;21.80;99.90;;;;;;4972966;28;20272;-52
2022/08/04 01:26:39;;;;;;;5.50;3.87;;;21.80;99.90;;;;;;4971907;28;20266;-52
2022/08/04 01:29:10;;;;;;;3.17;3.00;;;21.90;99.90;;;;;;4972261;28;20204;-53
2022/08/04 01:31:55;;;;;;;3.23;3.07;;;21.90;99.90;;;;;;4991988;28;20203;-52
2022/08/04 01:34:23;;;;;;;3.33;3.13;;;21.90;99.90;;;;;;4970180;28;20220;-53
2022/08/04 01:37:04;;;;;;;3.60;3.40;;;21.90;99.90;;;;;;4976246;28;20204;-52
2022/08/04 01:39:42;;;;;;;3.30;3.20;;;21.90;99.90;;;;;;4982498;28;20200;-52
2022/08/04 01:42:11;;;;;;;4.30;3.43;;;21.80;99.90;;;;;;4981796;28;20216;-52
2022/08/04 01:44:41;;;;;;;3.30;3.20;;;21.80;99.90;;;;;;4976075;28;20710;-52
2022/08/04 01:47:09;;;;;;;3.50;3.40;;;21.80;99.90;;;;;;4995737;28;20219;-52
2022/08/04 01:49:39;;;;;;;3.90;3.80;;;21.70;99.90;;;;;;4995404;28;20299;-53
2022/08/04 01:52:09;;;;;;;4.33;4.03;;;21.80;99.90;;;;;;4992504;28;20204;-52
2022/08/04 01:54:39;;;;;;;3.57;3.43;;;21.80;99.90;;;;;;4981658;28;20599;-52
2022/08/04 01:57:07;;;;;;;3.50;3.40;;;21.70;99.90;;;;;;4974090;28;20684;-52
2022/08/04 01:59:36;;;;;;;4.23;4.13;;;21.70;99.90;;;;;;4975313;28;20200;-52
2022/08/04 02:02:05;;;;;;;3.87;3.53;;;21.70;99.90;;;;;;4981594;28;20208;-52
2022/08/04 02:04:32;;;;;;;4.43;3.13;;;21.60;99.90;;;;;;4977199;28;20255;-52
2022/08/04 02:07:11;;;;;;;4.03;3.73;;;21.60;99.90;;;;;;4988464;28;20211;-52
2022/08/04 02:09:46;;;;;;;3.30;3.10;;;21.60;99.90;;;;;;4976832;28;20674;-53
2022/08/04 02:12:24;;;;;;;3.97;3.70;;;21.60;99.90;;;;;;4971163;28;20203;-52
2022/08/04 02:14:57;;;;;;;3.70;3.43;;;21.50;99.90;;;;;;4981689;28;20223;-52
2022/08/04 02:17:31;;;;;;;4.17;3.83;;;21.40;99.90;;;;;;4982906;28;20200;-52
2022/08/04 02:20:05;;;;;;;4.53;4.20;;;21.30;99.90;;;;;;4971576;28;20258;-52
2022/08/04 02:22:35;;;;;;;3.67;3.47;;;21.20;99.90;;;;;;4976221;28;20196;-52
2022/08/04 02:25:07;;;;;;;4.00;3.80;;;21.20;99.90;;;;;;4972319;28;20228;-52
2022/08/04 02:27:56;;;;;;;4.10;4.00;;;21.20;99.90;;;;;;4975172;28;20192;-52
2022/08/04 02:30:30;;;;;;;3.37;3.27;;;21.20;99.90;;;;;;4977940;28;20258;-52
2022/08/04 02:33:03;;;;;;;4.13;3.83;;;21.20;99.90;;;;;;4970936;28;20703;-52
2022/08/04 02:35:38;;;;;;;4.03;3.70;;;21.20;99.90;;;;;;4986364;28;20227;-52
2022/08/04 02:38:16;;;;;;;4.13;4.03;;;21.20;99.90;;;;;;4989843;28;20204;-52
2022/08/04 02:40:44;;;;;;;4.17;3.97;;;21.20;99.90;;;;;;4982917;28;20211;-52
2022/08/04 02:43:12;;;;;;;3.37;3.27;;;21.10;99.90;;;;;;4972425;28;20299;-53
2022/08/04 02:45:42;;;;;;;3.90;3.70;;;21.10;99.90;;;;;;4977080;28;20496;-52
2022/08/04 02:48:11;;;;;;;3.53;3.43;;;21.10;99.90;;;;;;4980845;28;20655;-52
2022/08/04 02:50:40;;;;;;;4.27;4.00;;;21.00;99.90;;;;;;4974960;28;20208;-52
2022/08/04 02:53:11;;;;;;;3.20;3.03;;;21.00;99.90;;;;;;4972995;28;20677;-52
2022/08/04 02:55:41;;;;;;;4.00;3.80;;;21.00;99.90;;;;;;4974846;28;20315;-52
2022/08/04 02:58:09;;;;;;;3.50;3.40;;;21.00;99.90;;;;;;4977532;28;20205;-52
2022/08/04 03:00:38;;;;;;;4.63;4.43;;;21.00;99.90;;;;;;4974169;28;20268;-52
2022/08/04 03:03:21;;;;;;;4.30;4.10;;;21.10;99.90;;;;;;4983687;28;20665;-51
2022/08/04 03:06:13;;;;;;;4.90;4.60;;;21.10;99.90;;;;;;4972571;28;20224;-52
2022/08/04 03:09:17;;;;;;;3.93;3.73;;;21.10;99.90;;;;;;4974628;28;20251;-52
2022/08/04 03:12:21;;;;;;;4.50;4.17;;;21.00;99.90;;;;;;4981296;28;20216;-52
2022/08/04 03:15:05;;;;;;;4.00;3.80;;;20.90;99.90;;;;;;4972171;28;20216;-52
2022/08/04 03:17:58;;;;;;;3.20;2.90;;;20.80;99.90;;;;;;4974499;28;20764;-52
2022/08/04 03:21:05;;;;;;;4.37;4.10;;;20.80;99.90;;;;;;4968062;28;20678;-52
2022/08/04 03:24:14;;;;;;;3.17;3.07;;;20.80;99.90;;;;;;4966854;28;20196;-52
2022/08/04 03:27:02;;;;;;;3.07;2.97;;;20.90;99.90;;;;;;4974324;28;20205;-52
2022/08/04 03:29:59;;;;;;;4.27;3.83;;;20.90;99.90;;;;;;4973843;28;20235;-52
2022/08/04 03:32:53;;;;;;;3.70;3.60;;;20.90;99.90;;;;;;4959768;28;20619;-52
2022/08/04 03:35:52;;;;;;;4.73;4.37;;;21.00;99.90;;;;;;4969479;28;20223;-52
2022/08/04 03:38:46;;;;;;;3.97;3.77;;;21.00;99.90;;;;;;4971468;28;20209;-52
2022/08/04 03:41:37;;;;;;;3.63;3.53;;;20.90;99.90;;;;;;4969571;28;20201;-52
2022/08/04 03:44:46;;;;;;;4.07;3.67;;;20.90;99.90;;;;;;4973923;28;20204;-52
2022/08/04 03:47:37;;;;;;;3.97;3.87;;;20.70;99.90;;;;;;4964260;28;20200;-52
2022/08/04 03:53:07;;;;;;;4.67;4.27;;;20.60;99.90;;;;;;4973451;28;20663;-52
2022/08/04 03:53:55;;;;;;;3.73;3.53;;;20.50;99.90;;;;;;4882932;29;20255;-52
2022/08/04 03:56:53;;;;;;;5.10;4.80;;;20.40;99.90;;;;;;4886134;29;20809;-52
2022/08/04 03:59:36;;;;;;;5.13;4.93;;;20.50;99.90;;;;;;4956897;28;20205;-52
2022/08/04 04:02:26;;;;;;;4.27;3.97;;;20.40;99.90;;;;;;4968988;28;20204;-53
2022/08/04 04:05:35;;;;;;;3.60;3.50;;;20.40;99.90;;;;;;4973820;28;20286;-52
2022/08/04 04:08:22;;;;;;;4.20;4.00;;;20.40;99.90;;;;;;4966302;28;20200;-52
2022/08/04 04:11:30;;;;;;;3.87;3.67;;;20.40;99.90;;;;;;4971669;28;20263;-53
2022/08/04 04:14:18;;;;;;;3.63;3.53;;;20.50;99.90;;;;;;4965205;28;20200;-52
2022/08/04 04:17:09;;;;;;;4.40;4.20;;;20.50;99.90;;;;;;4974967;28;20276;-52
2022/08/04 04:20:07;;;;;;;3.90;3.70;;;20.50;99.90;;;;;;4969153;28;20284;-52
2022/08/04 04:22:54;;;;;;;4.03;3.70;;;20.60;99.90;;;;;;4919418;28;20215;-53
2022/08/04 04:25:35;;;;;;;3.93;3.73;;;20.70;99.90;;;;;;4997190;23;20698;-54
2022/08/04 04:28:24;;;;;;;3.93;3.83;;;20.80;99.90;;;;;;4976273;28;20196;-54
2022/08/04 04:31:01;;;;;;;4.17;4.07;;;20.80;99.90;;;;;;4972925;28;20688;-54
2022/08/04 04:33:43;;;;;;;4.07;3.90;;;20.80;99.90;;;;;;4976564;28;20212;-54
2022/08/04 04:36:17;;;;;;;4.57;4.27;;;20.90;99.90;;;;;;4974593;28;20306;-53
2022/08/04 04:39:02;;;;;;;4.03;3.73;;;20.80;99.90;;;;;;4984361;28;20266;-53
2022/08/04 04:41:58;;;;;;;4.30;4.10;;;20.90;99.90;;;;;;4972913;28;22091;-53
2022/08/04 04:44:49;;;;;;;3.70;3.60;;;20.90;99.90;;;;;;4966047;28;20197;-54
2022/08/04 04:47:27;;;;;;;4.10;3.90;;;21.00;99.90;;;;;;4962705;28;20247;-53
2022/08/04 04:50:03;;;;;;;3.70;3.50;;;21.20;99.90;;;;;;4961588;28;20204;-54
2022/08/04 04:52:40;;;;;;;4.50;4.30;;;21.30;99.90;;;;;;4968150;28;20208;-53
2022/08/04 04:55:16;;;;;;;4.93;4.60;;;21.60;99.90;;;;;;4957106;28;20232;-53
2022/08/04 04:57:44;;;;;;;3.77;3.47;;;21.90;99.90;;;;;;4970536;28;20227;-54
2022/08/04 05:00:13;;;;;;;4.57;4.27;;;22.50;99.90;;;;;;4960805;28;21646;-53
2022/08/04 05:03:05;;;;;;;3.70;3.53;;;23.10;99.90;;;;;;4953263;28;20796;-53
2022/08/04 05:05:49;;;;;;;4.27;3.97;;;23.80;99.90;;;;;;4952285;28;20217;-53
2022/08/04 05:09:07;;;;;;;3.77;3.47;;;24.50;99.90;;;;;;4955869;28;20693;-53
2022/08/04 05:12:02;;;;;;;4.23;3.93;;;25.30;99.90;;;;;;4948309;28;20240;-54
2022/08/04 05:14:34;;;;;;;3.80;3.57;;;26.00;99.90;;;;;;4972878;28;20204;-54
2022/08/04 05:17:06;;;;;;;4.23;3.83;;;26.40;99.90;;;;;;4974336;28;20228;-54
2022/08/04 05:19:45;;;;;;;3.93;3.63;;;27.00;99.90;;;;;;4974042;28;20741;-53
2022/08/04 05:22:24;;;;;;;3.97;3.83;;;27.30;99.90;;;;;;4969823;28;20229;-53
2022/08/04 05:25:00;;;;;;;3.38;3.28;;;28.10;99.90;;;;;;4969046;28;20237;-53
2022/08/04 05:27:37;;;;;;;4.88;3.97;;;28.60;99.90;;;;;;4974161;28;20729;-54
2022/08/04 05:30:06;;;;;;;4.03;3.83;;;28.80;99.90;;;;;;4970071;28;20627;-54
2022/08/04 05:32:41;;;;;;;2.90;2.80;;;29.20;99.90;;;;;;4975003;28;20208;-54
2022/08/04 05:35:11;;;;;;;3.88;3.60;;;29.30;99.90;;;;;;4978386;28;20215;-54
2022/08/04 05:37:40;;;;;;;4.13;3.88;;;29.50;99.90;;;;;;4973478;28;20315;-54
2022/08/04 05:40:10;;;;;;;3.42;3.33;;;29.50;99.90;;;;;;4983338;28;20564;-54
2022/08/04 05:42:40;;;;;;;3.80;3.70;;;29.90;99.90;;;;;;4987780;28;20200;-53
2022/08/04 05:45:09;;;;;;;3.88;3.78;;;30.20;99.90;;;;;;4995279;28;20228;-54
2022/08/04 05:47:37;;;;;;;3.15;3.05;;;30.70;99.90;;;;;;4983469;28;20192;-54
2022/08/04 05:50:06;;;;;;;3.05;2.95;;;31.20;99.90;;;;;;4974083;28;20196;-54
2022/08/04 05:52:36;;;;;;;6.38;3.25;;;31.50;99.90;;;;;;4969613;28;20236;-53
2022/08/04 05:55:04;;;;;;;3.10;3.00;;;31.80;99.90;;;;;;4968926;28;20212;-53
2022/08/04 05:57:33;;;;;;;3.15;2.90;;;31.60;99.90;;;;;;4974443;28;20275;-54
2022/08/04 06:00:05;;;;;;;3.63;3.50;;;31.80;99.90;;;;;;4968398;28;20200;-54
2022/08/04 06:02:33;;;;;;;3.63;3.17;;;31.70;99.90;;;;;;4956867;28;20292;-54
2022/08/04 06:05:01;;;;;;;3.58;3.47;;;32.10;99.90;;;;;;4955778;28;20216;-54
2022/08/04 06:07:29;;;;;;;3.65;3.55;;;32.70;99.90;;;;;;4955815;28;20287;-53
2022/08/04 06:09:56;;;;;;;3.60;3.50;;;33.10;99.90;;;;;;4955206;28;20205;-54
2022/08/04 06:12:26;;;;;;;3.35;3.22;;;33.50;99.90;;;;;;4958200;28;20205;-54
2022/08/04 06:14:56;;;;;;;3.15;2.95;;;33.40;99.90;;;;;;4966490;28;20283;-54
2022/08/04 06:17:30;;;;;;;2.90;2.80;;;33.60;99.90;;;;;;4969757;28;20299;-53
2022/08/04 06:19:59;;;;;;;2.92;2.83;;;33.90;99.90;;;;;;4979717;28;20200;-53
2022/08/04 06:22:30;;;;;;;3.25;2.97;;;33.90;99.90;;;;;;4985306;28;20287;-54
2022/08/04 06:24:59;;;;;;;3.25;3.15;;;34.40;99.90;;;;;;4973157;28;20674;-53
2022/08/04 06:27:28;;;;;;;2.92;2.83;;;34.60;99.40;;;;;;4976801;28;20201;-53
2022/08/04 06:29:58;;;;;;;3.40;3.30;;;35.00;98.50;;;;;;4974868;28;20204;-53
2022/08/04 06:32:35;;;;;;;2.85;2.70;;;35.30;99.50;;;;;;4972707;28;20207;-54
2022/08/04 06:35:05;;;;;;;4.30;3.38;;;35.50;97.20;;;;;;4964763;28;20670;-54
2022/08/04 06:37:33;;;;;;;3.75;3.50;;;35.80;96.30;;;;;;4971611;28;20637;-53
2022/08/04 06:40:01;;;;;;;3.70;3.47;;;36.10;96.00;;;;;;4971776;28;20207;-53
2022/08/04 06:42:29;;;;;;;5.55;3.50;;;35.80;95.30;;;;;;4974561;28;20255;-55
2022/08/04 06:44:59;;;;;;;3.35;2.78;;;36.00;96.50;;;;;;4969455;28;20674;-54
2022/08/04 06:47:29;;;;;;;3.58;3.47;;;36.40;94.30;;;;;;4974300;28;20196;-54
2022/08/04 06:49:56;;;;;;;2.92;2.83;;;36.90;94.80;;;;;;4987206;28;20203;-54
2022/08/04 06:52:23;;;;;;;3.67;3.58;;;36.70;95.00;;;;;;4973384;28;20232;-54
2022/08/04 06:54:52;;;;;;;3.88;3.78;;;36.90;93.80;;;;;;4963732;28;20208;-54
2022/08/04 06:57:22;;;;;;;3.42;3.40;;;37.10;93.90;;;;;;4974639;28;20231;-54
2022/08/04 06:59:54;;;;;;;3.38;3.38;;;37.10;94.10;;;;;;4971384;28;20216;-54
2022/08/04 07:02:25;;;;;;;3.40;3.30;;;36.20;96.40;;;;;;4974410;28;20230;-54
2022/08/04 07:04:54;;;;;;;2.67;2.58;;;36.40;95.70;;;;;;4979134;28;20278;-54
2022/08/04 07:07:23;;;;;;;3.25;3.05;;;36.30;95.60;;;;;;4988273;28;20207;-54
2022/08/04 07:09:51;;;;;;;3.00;3.00;;;36.70;93.90;;;;;;4967304;28;20221;-55
2022/08/04 07:12:20;;;;;;;3.70;3.60;;;36.70;92.70;;;;;;4982037;28;20729;-55
2022/08/04 07:14:48;;;;;;;3.60;3.20;;;36.90;93.20;;;;;;4973449;28;20310;-55
2022/08/04 07:17:16;;;;;;;3.08;2.78;;;37.10;93.50;;;;;;4971221;28;21038;-55
2022/08/04 07:19:44;;;;;;;3.20;3.00;;;37.00;92.70;;;;;;4971373;28;20211;-55
2022/08/04 07:22:12;;;;;;;3.70;3.40;;;37.40;92.80;;;;;;4979231;28;20290;-55
2022/08/04 07:24:42;;;;;;;4.38;3.72;;;37.50;92.10;;;;;;4985285;28;20632;-55
2022/08/04 07:27:09;;;;;;;3.55;3.45;;;37.60;91.70;;;;;;4992912;28;20286;-55
2022/08/04 07:29:36;;;;;;;4.05;3.85;;;37.80;91.20;;;;;;4984642;28;20202;-55
2022/08/04 07:32:04;;;;;;;3.95;3.75;;;37.50;90.80;;;;;;4978392;28;20212;-55
2022/08/04 07:34:33;;;;;;;4.30;4.00;;;37.80;90.80;;;;;;4983532;28;20309;-55
2022/08/04 07:37:00;;;;;;;3.28;3.13;;;37.70;92.00;;;;;;4980977;28;20456;-55
2022/08/04 07:39:31;;;;;;;3.67;3.47;;;37.70;90.50;;;;;;4970042;28;20233;-55
2022/08/04 07:42:01;;;;;;;4.28;3.97;;;37.90;91.90;;;;;;4980114;28;20200;-55
2022/08/04 07:44:29;;;;;;;3.92;3.83;;;37.60;91.00;;;;;;4980050;28;20203;-55
2022/08/04 07:46:56;;;;;;;3.53;3.42;;;37.90;90.80;;;;;;4985030;28;20566;-55
2022/08/04 07:49:25;;;;;;;4.20;3.92;;;38.10;90.70;;;;;;4979537;28;20200;-55
2022/08/04 07:51:53;;;;;;;3.30;3.17;;;38.50;90.00;;;;;;4973631;28;20283;-55
2022/08/04 07:54:22;;;;;;;3.60;3.38;;;38.70;88.70;;;;;;4988855;28;20204;-55
2022/08/04 07:56:50;;;;;;;3.75;3.60;;;38.70;89.40;;;;;;4990230;28;20622;-55
2022/08/04 07:59:18;;;;;;;2.75;2.72;;;38.80;89.30;;;;;;4977814;28;20203;-55
2022/08/04 08:01:46;;;;;;;3.40;3.30;;;38.50;88.70;;;;;;4983842;28;20546;-55
2022/08/04 08:04:15;;;;;;;3.25;3.10;;;38.50;89.50;;;;;;4992731;28;20207;-56
2022/08/04 08:06:42;;;;;;;3.60;3.50;;;38.60;85.90;;;;;;4992533;28;20227;-56
2022/08/04 08:09:11;;;;;;;4.00;3.72;;;38.60;89.00;;;;;;4989813;28;20203;-55
2022/08/04 08:11:38;;;;;;;4.85;3.55;;;38.80;90.70;;;;;;4972455;28;20589;-55
2022/08/04 08:14:08;;;;;;;3.45;3.35;;;39.00;91.10;;;;;;4978310;28;20216;-55
2022/08/04 08:16:36;;;;;;;3.83;3.65;;;38.60;91.80;;;;;;4967939;28;20870;-55
2022/08/04 08:19:04;;;;;;;3.33;3.22;;;37.50;91.00;;;;;;4971607;28;20200;-55
2022/08/04 08:21:32;;;;;;;3.60;3.50;;;38.10;91.70;;;;;;4980524;28;20208;-55
2022/08/04 08:23:59;;;;;;;3.90;3.70;;;38.40;91.80;;;;;;4970978;28;20208;-55
2022/08/04 08:26:26;;;;;;;3.80;3.58;;;38.40;91.80;;;;;;4960436;28;20225;-55
2022/08/04 08:28:54;;;;;;;4.43;4.22;;;38.60;91.70;;;;;;4961225;28;20287;-55
2022/08/04 08:31:22;;;;;;;4.38;4.07;;;38.60;91.70;;;;;;4968664;28;20643;-55
2022/08/04 08:33:53;;;;;;;3.83;3.53;;;37.80;91.70;;;;;;4953405;29;20205;-55
2022/08/04 08:36:26;;;;;;;4.18;3.80;;;37.10;93.10;;;;;;4953476;28;20221;-55
2022/08/04 08:39:00;;;;;;;3.53;3.22;;;37.00;93.20;;;;;;4958517;28;20249;-55
2022/08/04 08:41:55;;;;;;;4.63;4.35;;;36.40;93.90;;;;;;4970145;28;20192;-55
2022/08/04 08:45:06;;;;;;;3.80;3.70;;;36.10;94.50;;;;;;4973890;28;20787;-55
2022/08/04 08:48:07;;;;;;;3.97;3.88;;;36.70;94.30;;;;;;4992514;28;20216;-55
2022/08/04 08:51:06;;;;;;;3.83;3.60;;;37.40;93.80;;;;;;4982086;28;20741;-55
2022/08/04 08:53:53;;;;;;;4.40;4.25;;;38.10;92.80;;;;;;4971484;28;20610;-55
2022/08/04 08:56:31;;;;;;;3.67;3.47;;;37.40;92.40;;;;;;4976499;28;20745;-55
2022/08/04 08:59:18;;;;;;;3.83;3.72;;;37.40;92.00;;;;;;4972439;28;20323;-55
2022/08/04 09:01:59;;;;;;;4.40;4.28;;;37.30;92.80;;;;;;4972205;28;20211;-55
2022/08/04 09:04:58;;;;;;;4.50;4.18;;;37.70;93.90;;;;;;4979865;28;20242;-55
2022/08/04 09:07:49;;;;;;;3.88;3.78;;;37.80;91.20;;;;;;4979540;28;20192;-55
2022/08/04 09:10:21;;;;;;;5.00;4.38;;;38.20;90.60;;;;;;4972242;28;20204;-55
2022/08/04 09:12:53;;;;;;;3.92;3.83;;;38.10;91.30;;;;;;4975017;28;20210;-55
2022/08/04 09:15:29;;;;;;;3.90;3.80;;;37.90;92.20;;;;;;4976352;28;20224;-55
2022/08/04 09:18:02;;;;;;;3.70;3.60;;;38.10;93.60;;;;;;4972547;28;20223;-55
2022/08/04 09:20:34;;;;;;;4.13;4.03;;;38.20;92.00;;;;;;4967997;28;20517;-55
2022/08/04 09:23:13;;;;;;;3.85;3.72;;;38.70;90.90;;;;;;4978618;28;20634;-55
2022/08/04 09:25:47;;;;;;;5.47;5.07;;;39.40;91.60;;;;;;4978927;28;20254;-56
2022/08/04 09:28:22;;;;;;;3.90;3.70;;;39.20;91.60;;;;;;4986246;28;20681;-55
2022/08/04 09:30:56;;;;;;;4.07;3.97;;;38.30;91.30;;;;;;4991159;28;20271;-55
2022/08/04 09:33:31;;;;;;;3.70;3.60;;;37.40;92.90;;;;;;4985170;28;20208;-55
2022/08/04 09:36:07;;;;;;;8.18;4.68;;;37.20;94.40;;;;;;4973362;28;20219;-56
2022/08/04 09:38:41;;;;;;;4.68;4.47;;;37.80;92.70;;;;;;4980732;28;20286;-55
2022/08/04 09:41:22;;;;;;;4.00;3.90;;;38.50;91.60;;;;;;4991416;28;20207;-55
2022/08/04 09:44:08;;;;;;;4.10;3.80;;;39.10;91.60;;;;;;4991595;28;20211;-55
2022/08/04 09:46:40;;;;;;;4.85;4.55;;;39.20;92.90;;;;;;4989505;28;20234;-55
2022/08/04 09:49:14;;;;;;;4.50;4.40;;;38.50;92.70;;;;;;4978921;28;20203;-55
2022/08/04 09:51:53;;;;;;;5.05;4.75;;;38.20;92.00;;;;;;4979970;28;20228;-56
2022/08/04 09:54:27;;;;;;;4.80;4.47;;;37.60;95.00;;;;;;4972069;28;20737;-55
2022/08/04 09:57:04;;;;;;;4.43;4.13;;;37.90;93.50;;;;;;4975703;28;20283;-55
2022/08/04 09:59:41;;;;;;;4.47;4.22;;;37.90;92.20;;;;;;4975407;28;20228;-55
2022/08/04 10:02:11;;;;;;;4.03;3.83;;;37.60;93.60;;;;;;4966537;28;20303;-55
2022/08/04 10:04:40;;;;;;;4.95;4.65;;;37.70;92.20;;;;;;4981682;28;20240;-55
2022/08/04 10:07:24;;;;;;;4.03;3.92;;;37.70;93.20;;;;;;4971511;28;20247;-55
2022/08/04 10:10:20;;;;;;;5.00;4.70;;;37.50;92.50;;;;;;4955894;29;20300;-55
2022/08/04 10:13:08;;;;;;;3.80;3.70;;;37.10;94.10;;;;;;4962214;28;20283;-55
2022/08/04 10:15:44;;;;;;;4.38;4.15;;;37.10;93.10;;;;;;4984025;28;20255;-55
2022/08/04 10:18:28;;;;;;;4.53;4.32;;;37.10;94.00;;;;;;4982792;28;20712;-55
2022/08/04 10:21:03;;;;;;;4.60;4.40;;;37.20;93.40;;;;;;4979904;28;20199;-55
2022/08/04 10:23:58;;;;;;;4.68;4.38;;;37.70;91.90;;;;;;4972628;28;20240;-55
2022/08/04 10:26:33;;;;;;;4.10;3.78;;;38.00;92.20;;;;;;4973735;28;20283;-55
2022/08/04 10:29:04;;;;;;;4.85;4.65;;;37.20;92.60;;;;;;4973560;28;20207;-55
2022/08/04 10:31:35;;;;;;;3.80;3.60;;;37.40;93.30;;;;;;4974086;28;20668;-55
2022/08/04 10:34:11;;;;;;;4.38;4.25;;;37.60;94.20;;;;;;4989298;28;20205;-55
2022/08/04 10:36:45;;;;;;;4.20;4.00;;;37.60;94.40;;;;;;4973955;28;20222;-55
2022/08/04 10:39:18;;;;;;;3.70;3.60;;;37.90;91.00;;;;;;4976119;28;20232;-55
2022/08/04 10:41:54;;;;;;;4.85;4.70;;;38.10;91.90;;;;;;4968059;28;20212;-55
2022/08/04 10:44:34;;;;;;;4.53;4.30;;;38.20;90.50;;;;;;4967836;28;20209;-55
2022/08/04 10:47:04;;;;;;;3.70;3.60;;;37.80;93.00;;;;;;4954523;28;20224;-55
2022/08/04 10:49:37;;;;;;;4.00;3.78;;;37.80;92.40;;;;;;4966440;28;20196;-55
2022/08/04 10:52:11;;;;;;;3.83;3.72;;;38.30;91.50;;;;;;4955202;28;20252;-55
2022/08/04 10:54:48;;;;;;;4.13;3.92;;;38.50;91.90;;;;;;4955299;28;20217;-55
2022/08/04 10:57:23;;;;;;;4.50;4.30;;;38.30;91.10;;;;;;4954631;28;20679;-55
2022/08/04 10:59:56;;;;;;;4.70;4.40;;;37.70;91.10;;;;;;4971117;28;20199;-55
2022/08/04 11:02:36;;;;;;;4.30;4.10;;;37.20;94.10;;;;;;4973612;28;20287;-55
2022/08/04 11:05:13;;;;;;;3.90;3.60;;;36.40;93.40;;;;;;4992792;28;20257;-55
2022/08/04 11:07:43;;;;;;;4.45;4.35;;;36.10;95.00;;;;;;4954481;28;20201;-55
2022/08/04 11:10:14;;;;;;;4.18;3.92;;;35.80;95.40;;;;;;4954872;28;20201;-55
2022/08/04 11:12:43;;;;;;;3.42;3.33;;;35.70;95.40;;;;;;4955276;29;20275;-55
2022/08/04 11:15:22;;;;;;;4.47;4.13;;;35.70;93.20;;;;;;4969875;28;20726;-55
2022/08/04 11:17:56;;;;;;;3.80;3.72;;;35.30;95.80;;;;;;4977371;28;20243;-55
2022/08/04 11:20:29;;;;;;;3.90;3.70;;;35.10;91.80;;;;;;4974755;28;20603;-55
2022/08/04 11:23:04;;;;;;;3.53;3.40;;;35.10;94.40;;;;;;4977429;28;20203;-55
2022/08/04 11:25:41;;;;;;;3.25;3.20;;;34.70;94.70;;;;;;4975224;28;20231;-55
2022/08/04 11:28:15;;;;;;;3.00;2.90;;;34.70;94.20;;;;;;4978995;28;20242;-55
2022/08/04 11:30:51;;;;;;;3.45;3.05;;;34.70;92.80;;;;;;4979964;28;20577;-55
2022/08/04 11:33:27;;;;;;;3.28;3.28;;;34.70;92.50;;;;;;4982201;28;20287;-55
2022/08/04 11:36:03;;;;;;;4.13;2.92;;;34.80;93.40;;;;;;4975732;28;20219;-55
2022/08/04 11:38:35;;;;;;;3.22;3.13;;;34.50;93.30;;;;;;4984362;28;20305;-55
2022/08/04 11:41:09;;;;;;;3.15;3.15;;;34.70;91.70;;;;;;4973345;28;20581;-55
2022/08/04 11:43:43;;;;;;;3.50;3.35;;;34.50;94.40;;;;;;4973771;28;20265;-55
2022/08/04 11:46:30;;;;;;;6.28;2.70;;;34.40;91.50;;;;;;4973585;28;20289;-55
2022/08/04 11:49:03;;;;;;;2.95;2.78;;;34.40;90.70;;;;;;4980391;28;20276;-55
2022/08/04 11:51:33;;;;;;;3.40;3.10;;;34.50;90.30;;;;;;4990473;28;20233;-55
2022/08/04 11:54:02;;;;;;;2.92;2.65;;;34.50;90.30;;;;;;4983977;28;20197;-55
2022/08/04 11:56:31;;;;;;;2.65;2.53;;;34.40;90.80;;;;;;4986031;28;20224;-55
2022/08/04 11:59:00;;;;;;;2.65;2.65;;;34.40;90.60;;;;;;4992797;28;20266;-55
2022/08/04 12:01:35;;;;;;;2.90;2.72;;;34.40;91.50;;;;;;4976470;28;20209;-55
2022/08/04 12:04:10;;;;;;;3.00;2.88;;;34.30;91.70;;;;;;4977561;28;20621;-55
2022/08/04 12:06:45;;;;;;;4.43;2.53;;;34.30;91.10;;;;;;4984871;28;20577;-56
2022/08/04 12:09:21;;;;;;;2.92;2.83;;;33.90;91.00;;;;;;4992605;28;20257;-55
2022/08/04 12:12:06;;;;;;;3.13;2.92;;;33.80;93.60;;;;;;4990959;28;20200;-56
2022/08/04 12:14:49;;;;;;;2.40;2.40;;;33.80;93.60;;;;;;4973230;28;20213;-55
2022/08/04 12:17:22;;;;;;;3.38;3.03;;;33.80;92.20;;;;;;4973082;28;20204;-55
2022/08/04 12:19:51;;;;;;;2.50;2.40;;;33.80;93.50;;;;;;4972570;28;20694;-55
2022/08/04 12:22:22;;;;;;;2.60;2.60;;;33.90;92.10;;;;;;4970116;28;20204;-57
2022/08/04 12:24:59;;;;;;;2.42;2.40;;;34.00;92.10;;;;;;4963386;28;20201;-55
2022/08/04 12:27:33;;;;;;;2.92;2.83;;;33.90;91.00;;;;;;4966297;28;20205;-55
2022/08/04 12:30:01;;;;;;;3.15;2.78;;;33.90;93.50;;;;;;4960387;28;20224;-56
2022/08/04 12:32:34;;;;;;;3.05;2.95;;;33.90;91.80;;;;;;4953791;28;20240;-56
2022/08/04 12:35:12;;;;;;;3.17;2.92;;;33.80;92.80;;;;;;4954308;28;20261;-54
2022/08/04 12:37:48;;;;;;;2.85;2.85;;;33.80;91.30;;;;;;4976486;28;20663;-55
2022/08/04 12:40:20;;;;;;;2.88;2.72;;;33.90;91.60;;;;;;4962166;28;20200;-54
2022/08/04 12:42:57;;;;;;;3.67;3.33;;;33.90;90.40;;;;;;4953373;28;20217;-55
2022/08/04 12:45:25;;;;;;;2.70;2.50;;;33.90;92.40;;;;;;4952280;28;20462;-55
2022/08/04 12:47:54;;;;;;;3.00;2.80;;;34.00;91.60;;;;;;4960266;28;20244;-54
2022/08/04 12:50:22;;;;;;;3.00;2.90;;;33.90;91.20;;;;;;4974337;28;20479;-55
2022/08/04 12:52:56;;;;;;;2.65;2.45;;;34.00;91.70;;;;;;4973077;28;20593;-55
2022/08/04 12:55:26;;;;;;;2.63;2.53;;;33.90;91.10;;;;;;4970141;28;20295;-55
2022/08/04 12:57:57;;;;;;;2.97;2.78;;;33.90;90.10;;;;;;4958241;28;20205;-55
2022/08/04 13:00:29;;;;;;;2.83;2.72;;;33.90;90.90;;;;;;4972202;28;20211;-55
2022/08/04 13:03:02;;;;;;;2.97;2.88;;;33.90;91.40;;;;;;4953872;28;20607;-55
2022/08/04 13:05:31;;;;;;;3.83;3.05;;;33.90;90.50;;;;;;4965284;28;20223;-55
2022/08/04 13:08:00;;;;;;;3.42;3.13;;;33.90;92.00;;;;;;4971815;28;20204;-55
2022/08/04 13:10:29;;;;;;;3.03;2.92;;;34.00;92.90;;;;;;4979827;28;20196;-54
2022/08/04 13:12:59;;;;;;;3.20;3.08;;;34.00;92.30;;;;;;4970762;28;20340;-53
2022/08/04 13:15:29;;;;;;;3.95;2.80;;;33.90;91.40;;;;;;4954816;28;20355;-55
2022/08/04 13:17:59;;;;;;;2.35;2.25;;;33.90;91.40;;;;;;4963202;28;20600;-55
2022/08/04 13:20:29;;;;;;;2.95;2.85;;;33.90;92.80;;;;;;4971576;28;20209;-54
2022/08/04 13:23:03;;;;;;;2.58;2.47;;;33.90;91.40;;;;;;4964357;28;20201;-54
2022/08/04 13:25:31;;;;;;;2.72;2.72;;;33.90;94.00;;;;;;4967354;28;20228;-54
2022/08/04 13:28:02;;;;;;;2.70;2.50;;;33.80;93.60;;;;;;4958557;28;20205;-55
2022/08/04 13:30:32;;;;;;;2.38;2.35;;;33.90;91.80;;;;;;4969217;28;20299;-54
2022/08/04 13:33:02;;;;;;;3.08;2.92;;;33.90;91.50;;;;;;4974823;28;20207;-54